This is the latest recevied weather packets stored in our database for station/object KC3ULW-13. If no packets are shown the sender has not sent any weather packets the latest 10 day(s).
| Time | Temp. | Humidity | Pressure | Rain* | Wind** | Luminosity | Snow |
|---|---|---|---|---|---|---|---|
| 1778019918 | 22.78° C | 51% | 1010.1 hPa | 0 mm | - | 81 W/m² | - |
| 1778019008 | 22.78° C | 51% | 1010.4 hPa | 0 mm | - | 102 W/m² | - |
| 1778015071 | 22.78° C | 53% | 1010.4 hPa | 0 mm | - | 209 W/m² | - |
| 1778014767 | 22.78° C | 53% | 1010.3 hPa | 0 mm | - | 192 W/m² | - |
| 1778014466 | 22.78° C | 54% | 1010.5 hPa | 0 mm | - | 207 W/m² | - |
| 1778013557 | 21.67° C | 59% | 1010.4 hPa | 0 mm | - | 271 W/m² | - |
| 1778013253 | 21.11° C | 61% | 1010.3 hPa | 0 mm | - | 267 W/m² | - |
| 1778012950 | 20.56° C | 65% | 1010.4 hPa | 0 mm | - | 297 W/m² | - |
| 1778012343 | 19.44° C | 68% | 1010.4 hPa | 1.27 mm | - | 106 W/m² | - |
| 1778012040 | 20° C | 67% | 1010.3 hPa | 3.05 mm | - | 22 W/m² | - |
| 1778011738 | 22.22° C | 59% | 1010.3 hPa | 0 mm | - | 22 W/m² | - |
| 1778009917 | 23.33° C | 50% | 1010.5 hPa | 0 mm | - | 148 W/m² | - |
| 1778009616 | 23.33° C | 48% | 1010.5 hPa | 0 mm | - | 75 W/m² | - |
| 1778009313 | 23.33° C | 49% | 1010.5 hPa | 0 mm | - | 202 W/m² | - |
| 1778009011 | 23.33° C | 48% | 1010.5 hPa | 0 mm | - | 265 W/m² | - |
| 1778008708 | 23.33° C | 48% | 1010.6 hPa | 0 mm | - | 184 W/m² | - |
| 1778008407 | 23.33° C | 48% | 1010.6 hPa | 0 mm | - | 144 W/m² | - |
| 1778008103 | 23.33° C | 47% | 1010.5 hPa | 0 mm | - | 149 W/m² | - |
| 1778007799 | 23.33° C | 47% | 1010.6 hPa | 0 mm | - | 170 W/m² | - |
| 1778007495 | 23.89° C | 48% | 1010.6 hPa | 0 mm | - | 167 W/m² | - |
| 1778006585 | 23.89° C | 46% | 1010.6 hPa | 0 mm | - | 265 W/m² | - |
| 1778006281 | 23.89° C | 46% | 1010.7 hPa | 0 mm | - | 316 W/m² | - |
| 1778005979 | 25° C | 45% | 1010.7 hPa | 0 mm | - | 348 W/m² | - |
| 1778005675 | 24.44° C | 46% | 1010.8 hPa | 0 mm | - | 348 W/m² | - |
| 1778005372 | 23.89° C | 46% | 1010.8 hPa | 0 mm | - | 519 W/m² | - |
* Rain latest hour (hover to see other rain measurements)
** Current wind speed in m/s (hover to see current wind gust speed)